Cord, Arkansas
Current Conditions -  °F | °C
As of 9:56 PM on Saturday 20 Dec 2014 (Local Time) from KM19 Reporting Station
Overcast Overcast  
Wind Chill: 39°   Ceiling: 2500
Heat Index: 39°   Visibility: 8mi
Dew Point: 37°   Wind: 3mph
Humidity: 93%   Direction: 20°NNE
Pressure: 30.28"   Gusts: NA
Location:  35.81°N, 91.34°W
Report Text: KM19 210356Z AUTO 02003KT 8SM OVC025 04/03 A3028 RMK AO2 T00380027 SLP254
Loading
Personal Weather Stations






























Interactive Weather Map New forecast layout! Learn more

10-Day Weather Forecast

Advertisements
Track Severe Weather on mobile